Time;durP1;ratioP1;P1;durP2;ratioP2;P2;SDS_P1;SDS_P2;PMS_P1;PMS_P2;Temp;Humidity;BMP_temperature;BMP_pressure;BME280_temperature;BME280_humidity;BME280_pressure;Samples;Min_cycle;Max_cycle;Signal;HPM_P1;HPM_P2
2022/06/16 00:01:29;;;;;;;5.95;3.05;;;;;;;17.86;53.52;101779.97;4975790;28;20038;-59
2022/06/16 00:03:54;;;;;;;4.63;3.00;;;;;;;17.83;53.84;101777.56;4993215;28;20019;-59
2022/06/16 00:06:19;;;;;;;5.18;3.40;;;;;;;17.80;53.49;101768.94;4991272;28;20386;-59
2022/06/16 00:08:44;;;;;;;7.25;3.08;;;;;;;17.79;53.57;101775.31;4992190;28;20106;-59
2022/06/16 00:11:16;;;;;;;6.85;3.20;;;;;;;17.72;53.88;101778.56;4992903;28;20486;-59
2022/06/16 00:13:41;;;;;;;7.20;3.38;;;;;;;17.69;54.39;101772.63;4991828;28;20493;-59
2022/06/16 00:16:08;;;;;;;5.40;2.78;;;;;;;17.67;53.97;101780.84;4993041;28;20031;-59
2022/06/16 00:18:34;;;;;;;3.90;3.33;;;;;;;17.66;53.89;101779.13;4992395;28;20045;-59
2022/06/16 00:20:59;;;;;;;7.47;3.50;;;;;;;17.61;53.51;101776.03;4992817;28;20033;-59
2022/06/16 00:23:25;;;;;;;5.45;3.25;;;;;;;17.58;53.81;101784.34;4992487;28;20034;-59
2022/06/16 00:25:50;;;;;;;4.28;3.05;;;;;;;17.57;53.99;101786.19;4975142;28;20506;-59
2022/06/16 00:28:16;;;;;;;8.75;3.40;;;;;;;17.55;54.03;101785.50;4992616;28;20047;-60
2022/06/16 00:30:41;;;;;;;5.35;3.55;;;;;;;17.51;54.08;101786.75;4992357;28;20015;-59
2022/06/16 00:33:07;;;;;;;9.93;3.90;;;;;;;17.47;54.11;101788.03;4992743;28;20031;-59
2022/06/16 00:35:33;;;;;;;6.32;3.58;;;;;;;17.43;53.89;101783.91;4992750;28;20482;-59
2022/06/16 00:37:58;;;;;;;7.47;3.75;;;;;;;17.40;54.22;101786.88;4992485;28;20072;-58
2022/06/16 00:40:24;;;;;;;9.52;4.45;;;;;;;17.35;53.97;101786.44;4990770;28;20030;-59
2022/06/16 00:42:49;;;;;;;6.00;3.75;;;;;;;17.35;53.73;101795.38;4992668;28;20030;-59
2022/06/16 00:45:44;;;;;;;6.80;3.53;;;;;;;17.33;54.11;101788.44;4992495;28;20037;-59
2022/06/16 00:48:15;;;;;;;8.48;3.50;;;;;;;17.26;53.71;101792.66;4963619;28;20029;-59
2022/06/16 00:50:42;;;;;;;10.55;4.25;;;;;;;17.17;54.32;101794.34;4992679;28;20069;-59
2022/06/16 00:53:07;;;;;;;5.53;3.38;;;;;;;17.19;54.22;101798.56;4992269;28;20501;-59
2022/06/16 00:55:34;;;;;;;5.35;3.90;;;;;;;17.14;54.07;101802.69;4992405;28;20061;-60
2022/06/16 00:58:00;;;;;;;6.93;3.65;;;;;;;17.12;53.83;101807.31;4990379;28;20027;-59
2022/06/16 01:03:09;;;;;;;7.13;3.58;;;;;;;17.06;54.50;101807.88;4990196;28;20036;-59
2022/06/16 01:05:35;;;;;;;10.00;3.97;;;;;;;17.00;54.28;101806.56;4992002;28;20117;-59
2022/06/16 01:08:01;;;;;;;6.20;3.58;;;;;;;16.98;54.62;101803.19;4992555;28;20037;-59
2022/06/16 01:10:33;;;;;;;6.75;3.60;;;;;;;16.96;54.43;101802.47;4975069;28;20382;-59
2022/06/16 01:13:46;;;;;;;13.15;4.00;;;;;;;16.99;54.11;101812.94;4992094;28;20050;-59
2022/06/16 01:16:30;;;;;;;8.93;4.43;;;;;;;16.92;54.36;101814.44;4990216;28;20062;-59
2022/06/16 01:19:33;;;;;;;6.95;3.83;;;;;;;16.89;54.81;101817.44;4992334;28;20375;-58
2022/06/16 01:22:06;;;;;;;9.85;4.20;;;;;;;16.79;54.93;101811.97;4975096;28;20117;-59
2022/06/16 01:24:50;;;;;;;8.60;4.35;;;;;;;16.76;54.63;101815.78;4974874;28;20070;-59
2022/06/16 01:27:52;;;;;;;6.72;3.90;;;;;;;16.76;54.11;101820.28;4995501;28;20204;-58
2022/06/16 01:30:29;;;;;;;8.68;4.00;;;;;;;16.71;54.62;101831.41;4986166;28;20029;-58
2022/06/16 01:33:26;;;;;;;6.32;3.83;;;;;;;16.70;54.26;101835.06;4992983;28;20084;-59
2022/06/16 01:36:05;;;;;;;8.40;4.07;;;;;;;16.68;54.48;101834.38;4995617;28;20034;-59
2022/06/16 01:39:04;;;;;;;7.95;4.15;;;;;;;16.64;54.66;101841.84;4995438;28;20089;-59
2022/06/16 01:41:46;;;;;;;8.63;4.00;;;;;;;16.64;55.10;101830.25;4995462;28;20018;-58
2022/06/16 01:44:34;;;;;;;7.47;3.90;;;;;;;16.56;55.54;101830.06;4977753;28;20034;-59
2022/06/16 01:47:08;;;;;;;6.47;4.00;;;;;;;16.54;56.54;101832.88;4985535;28;20029;-58
2022/06/16 01:49:42;;;;;;;7.75;4.10;;;;;;;16.48;56.63;101829.88;4994572;28;20500;-58
2022/06/16 01:52:23;;;;;;;6.18;3.90;;;;;;;16.52;56.21;101834.00;4991146;28;20023;-59
2022/06/16 01:55:00;;;;;;;5.63;4.10;;;;;;;16.47;56.60;101834.41;4977904;28;20037;-58
2022/06/16 01:57:35;;;;;;;9.85;4.00;;;;;;;16.38;57.14;101846.75;4995495;28;20385;-59
2022/06/16 02:00:08;;;;;;;8.77;4.25;;;;;;;16.30;58.04;101848.38;4993740;28;20490;-58
2022/06/16 02:02:36;;;;;;;8.05;4.13;;;;;;;16.17;58.31;101837.84;4993099;28;20058;-58
2022/06/16 02:05:07;;;;;;;6.95;4.00;;;;;;;16.09;58.26;101844.72;4994040;28;20022;-58
2022/06/16 02:07:48;;;;;;;8.70;4.10;;;;;;;16.02;58.23;101843.53;4988339;28;20038;-59
2022/06/16 02:10:25;;;;;;;6.85;3.90;;;;;;;15.95;58.75;101839.66;4975886;28;20029;-57
2022/06/16 02:12:57;;;;;;;7.75;4.50;;;;;;;15.91;58.62;101825.66;4962228;28;20089;-58
2022/06/16 02:15:41;;;;;;;6.22;3.63;;;;;;;15.96;57.87;101836.00;4995090;28;20044;-59
2022/06/16 02:18:09;;;;;;;8.35;4.47;;;;;;;15.84;59.11;101829.00;4994865;28;20419;-59
2022/06/16 02:20:58;;;;;;;8.88;4.32;;;;;;;15.87;58.13;101834.97;4994644;28;20474;-58
2022/06/16 02:23:25;;;;;;;;;;;;;;;15.97;56.88;101844.88;4972854;28;20042;-59
2022/06/16 18:07:09;;;;;;;5.93;3.00;;;;;;;24.82;38.09;102148.03;519193;26;20980;-55
2022/06/16 18:09:35;;;;;;;5.00;3.00;;;;;;;24.71;36.89;102143.84;4947911;28;20067;-78
2022/06/16 18:12:01;;;;;;;5.32;2.72;;;;;;;24.68;38.04;102136.03;4955047;29;20036;-78
2022/06/16 18:14:28;;;;;;;9.73;3.40;;;;;;;24.60;39.53;102133.38;4940433;29;20031;-77
2022/06/16 18:16:54;;;;;;;6.93;2.92;;;;;;;24.59;37.81;102137.97;4958851;29;20019;-77
2022/06/16 18:19:20;;;;;;;7.60;3.30;;;;;;;24.52;40.13;102139.69;4958155;29;20043;-77
2022/06/16 18:21:48;;;;;;;9.45;3.25;;;;;;;24.47;39.62;102152.97;4958065;29;20082;-77
2022/06/16 18:24:22;;;;;;;4.13;2.90;;;;;;;24.46;40.42;102151.25;4949480;29;20031;-78
2022/06/16 18:26:53;;;;;;;10.00;3.15;;;;;;;24.29;41.35;102155.94;4934119;29;20035;-78
2022/06/16 18:29:19;;;;;;;4.60;3.10;;;;;;;24.24;38.98;102156.44;4931881;28;20035;-79
2022/06/16 18:31:45;;;;;;;10.05;3.20;;;;;;;24.15;40.95;102146.66;4945720;28;20051;-78
2022/06/16 18:34:13;;;;;;;4.50;3.03;;;;;;;24.08;39.07;102138.38;4956544;28;20110;-78
2022/06/16 18:36:42;;;;;;;4.53;2.80;;;;;;;24.05;40.74;102137.84;4964809;28;20043;-78
2022/06/16 18:39:09;;;;;;;4.85;2.83;;;;;;;24.00;41.02;102132.97;4958793;29;20031;-79
2022/06/16 18:41:43;;;;;;;5.45;2.70;;;;;;;23.92;40.86;102122.16;4954773;28;20444;-78
2022/06/16 18:44:10;;;;;;;7.07;2.78;;;;;;;23.83;41.61;102122.19;4940462;28;20039;-78
2022/06/16 18:49:21;;;;;;;3.05;2.72;;;;;;;23.65;41.76;102130.50;4949496;28;20098;-78
2022/06/16 18:51:48;;;;;;;6.35;2.45;;;;;;;23.63;42.32;102131.66;4947764;28;20035;-78
2022/06/16 18:54:15;;;;;;;6.93;3.00;;;;;;;23.54;43.08;102128.13;4952880;29;20027;-78
2022/06/16 18:56:40;;;;;;;5.38;3.03;;;;;;;23.43;42.89;102139.31;4956191;28;20050;-78
2022/06/16 18:59:08;;;;;;;5.75;3.05;;;;;;;23.36;43.48;102139.16;4949760;29;20023;-78
2022/06/16 19:01:34;;;;;;;4.28;3.00;;;;;;;23.32;43.69;102132.41;4957628;29;20035;-78
2022/06/16 19:03:59;;;;;;;4.65;3.00;;;;;;;23.26;43.34;102146.63;4938817;29;20030;-78
2022/06/16 19:06:29;;;;;;;10.63;3.10;;;;;;;23.19;44.50;102151.03;4943584;29;20174;-78
2022/06/16 19:08:56;;;;;;;13.45;3.53;;;;;;;23.06;44.32;102152.38;4942486;28;20047;-78
2022/06/16 19:11:22;;;;;;;11.35;3.10;;;;;;;22.97;44.25;102155.25;4947954;28;20047;-78
2022/06/16 19:13:48;;;;;;;9.60;3.20;;;;;;;22.91;45.43;102159.44;4940914;29;20031;-78
2022/06/16 19:16:15;;;;;;;10.18;3.83;;;;;;;22.81;45.90;102153.34;4945298;28;20421;-78
2022/06/16 19:18:46;;;;;;;11.90;4.20;;;;;;;22.74;47.03;102161.28;4953454;28;20103;-78
2022/06/16 19:21:26;;;;;;;13.57;3.42;;;;;;;22.71;45.74;102164.31;4943195;28;20039;-78
2022/06/16 19:23:55;;;;;;;8.73;3.53;;;;;;;22.61;46.01;102150.09;4928992;29;20030;-78
2022/06/16 19:26:23;;;;;;;11.30;3.40;;;;;;;22.52;45.70;102155.47;4946396;28;20424;-78
2022/06/16 19:28:49;;;;;;;12.90;4.43;;;;;;;22.47;46.81;102154.28;4933046;29;20519;-78
2022/06/16 19:31:21;;;;;;;12.68;3.88;;;;;;;22.37;47.34;102165.25;4939500;29;20039;-78
2022/06/16 19:33:47;;;;;;;14.75;3.70;;;;;;;22.35;47.44;102160.00;4945848;28;20107;-78
2022/06/16 19:36:13;;;;;;;11.35;3.88;;;;;;;22.30;47.89;102169.59;4944165;28;20177;-78
2022/06/16 19:38:43;;;;;;;7.82;3.00;;;;;;;22.26;48.25;102173.63;4947584;28;20035;-79
2022/06/16 19:41:14;;;;;;;11.70;3.75;;;;;;;22.17;48.78;102183.56;4935083;28;20040;-78
2022/06/16 19:52:00;;;;;;;15.02;4.57;;;;;;;21.88;50.50;102179.31;4949881;28;20101;-78
2022/06/16 19:54:28;;;;;;;14.43;4.07;;;;;;;21.82;51.46;102190.81;4944161;28;20072;-78
2022/06/16 19:56:54;;;;;;;8.73;3.67;;;;;;;21.69;50.56;102199.31;4946521;28;20510;-78
2022/06/16 19:59:19;;;;;;;5.38;2.97;;;;;;;21.69;49.98;102202.03;4941365;29;20039;-78
2022/06/16 20:01:45;;;;;;;8.15;3.20;;;;;;;21.64;50.63;102208.94;4936199;29;20182;-78
2022/06/16 20:04:11;;;;;;;8.45;3.22;;;;;;;21.56;50.67;102207.00;4930352;29;20459;-79
2022/06/16 20:06:37;;;;;;;8.05;4.07;;;;;;;21.47;51.43;102211.50;4944445;29;20124;-78
2022/06/16 20:09:04;;;;;;;10.00;4.70;;;;;;;21.44;50.17;102217.19;4948070;29;20106;-78
2022/06/16 20:11:31;;;;;;;11.55;3.80;;;;;;;21.32;50.51;102223.84;4945653;28;20067;-79
2022/06/16 20:13:57;;;;;;;5.88;3.40;;;;;;;21.32;49.21;102211.16;4927941;29;20396;-82
2022/06/16 20:16:23;;;;;;;6.65;3.55;;;;;;;21.25;49.47;102218.22;4934236;28;20035;-81
2022/06/16 20:18:48;;;;;;;6.18;3.20;;;;;;;21.22;49.46;102223.91;4945849;29;20641;-81
2022/06/16 20:21:20;;;;;;;7.00;3.58;;;;;;;21.15;49.61;102239.03;4947626;28;20082;-81
2022/06/16 20:23:46;;;;;;;4.50;3.35;;;;;;;21.10;50.39;102236.81;4939220;28;20035;-80
2022/06/16 20:26:14;;;;;;;7.68;3.60;;;;;;;21.01;50.10;102238.53;4945725;28;20027;-80
2022/06/16 20:28:41;;;;;;;8.80;3.40;;;;;;;20.99;49.49;102242.41;4944703;28;20043;-81
2022/06/16 20:31:08;;;;;;;7.50;3.42;;;;;;;20.92;50.20;102252.09;4938702;29;20035;-80
2022/06/16 20:33:34;;;;;;;5.53;3.30;;;;;;;20.88;49.78;102259.66;4938742;28;20071;-81
2022/06/16 20:36:00;;;;;;;8.07;3.95;;;;;;;20.79;50.08;102253.31;4940605;28;20030;-81
2022/06/16 20:38:26;;;;;;;7.40;3.83;;;;;;;20.80;50.77;102237.97;4945010;28;20065;-80
2022/06/16 20:40:54;;;;;;;9.35;3.65;;;;;;;20.73;50.72;102245.81;4948273;29;20102;-80
2022/06/16 20:43:20;;;;;;;9.43;3.88;;;;;;;20.72;50.59;102249.53;4950585;28;20058;-81
2022/06/16 20:45:47;;;;;;;9.90;3.58;;;;;;;20.60;51.84;102265.06;4954449;28;20038;-80
2022/06/16 20:48:18;;;;;;;6.25;3.78;;;;;;;20.56;51.59;102265.50;4948398;29;20047;-81
2022/06/16 20:50:43;;;;;;;11.23;3.70;;;;;;;20.49;51.60;102259.84;4950326;29;20041;-80
2022/06/16 20:53:12;;;;;;;7.03;3.38;;;;;;;20.43;51.23;102261.25;4949251;28;20063;-80
2022/06/16 20:55:38;;;;;;;7.65;3.88;;;;;;;20.38;51.48;102254.63;4960578;28;20066;-81
2022/06/16 21:03:32;;;;;;;10.13;4.07;;;;;;;20.21;53.11;102250.84;4953200;28;20452;-78
2022/06/16 21:05:59;;;;;;;6.70;4.13;;;;;;;20.12;52.58;102257.97;4952468;28;20039;-79
2022/06/16 21:08:25;;;;;;;6.30;4.20;;;;;;;20.06;53.20;102272.03;4938794;28;20075;-78
2022/06/16 21:10:52;;;;;;;8.90;4.30;;;;;;;20.01;53.76;102266.22;5287663;22;20009;-79
2022/06/16 21:13:18;;;;;;;9.73;4.30;;;;;;;19.98;53.57;102267.34;4961558;28;20082;-78
2022/06/16 21:15:46;;;;;;;9.68;4.50;;;;;;;19.89;54.00;102271.78;4966097;28;20030;-79
2022/06/16 21:18:23;;;;;;;8.75;4.45;;;;;;;19.90;53.25;102267.22;4972360;28;20510;-78
2022/06/16 21:20:49;;;;;;;7.28;4.22;;;;;;;19.81;54.42;102274.34;4959160;29;20446;-80
2022/06/16 21:23:20;;;;;;;7.60;4.60;;;;;;;19.75;54.71;102274.91;4970313;28;20053;-79
2022/06/16 21:25:45;;;;;;;8.95;4.40;;;;;;;19.72;54.22;102280.59;4966312;28;20035;-80
2022/06/16 21:28:10;;;;;;;6.10;4.70;;;;;;;19.66;54.97;102271.19;4946162;28;20038;-77
2022/06/16 21:30:39;;;;;;;6.47;4.57;;;;;;;19.60;55.40;102272.63;4966064;28;20118;-78
2022/06/16 21:33:05;;;;;;;6.20;4.30;;;;;;;19.56;55.82;102281.13;4954586;28;20038;-78
2022/06/16 21:35:32;;;;;;;9.32;4.93;;;;;;;19.52;56.21;102290.50;4958975;28;20034;-77
2022/06/16 21:37:58;;;;;;;8.73;4.97;;;;;;;19.50;55.89;102287.09;4955113;28;20059;-78
2022/06/16 21:40:27;;;;;;;7.40;5.03;;;;;;;19.45;56.32;102278.56;4959719;28;20031;-77
2022/06/16 21:42:52;;;;;;;6.22;4.75;;;;;;;19.48;56.14;102281.00;4959518;28;20148;-78
2022/06/16 21:45:18;;;;;;;6.18;4.43;;;;;;;19.41;56.45;102272.63;4963848;28;20046;-77
2022/06/16 21:47:46;;;;;;;4.95;4.18;;;;;;;19.35;56.74;102274.03;4958917;28;20051;-78
2022/06/16 21:50:21;;;;;;;8.30;4.72;;;;;;;19.30;57.04;102275.44;4957144;28;20031;-77
2022/06/16 21:52:47;;;;;;;10.57;5.00;;;;;;;19.19;57.33;102279.97;4958153;28;20051;-79
2022/06/16 21:55:17;;;;;;;8.15;5.15;;;;;;;19.15;57.80;102275.88;4942392;28;20035;-78
2022/06/16 21:57:42;;;;;;;6.65;4.88;;;;;;;19.18;57.82;102288.19;4957753;28;20067;-78
2022/06/16 22:00:09;;;;;;;8.18;5.28;;;;;;;19.07;58.22;102289.16;4957430;28;20101;-79
2022/06/16 22:02:34;;;;;;;9.45;5.20;;;;;;;19.06;58.53;102284.75;4959161;28;20046;-78
2022/06/16 22:05:01;;;;;;;6.80;4.55;;;;;;;18.97;57.50;102289.13;4959230;28;20039;-79
2022/06/16 22:07:27;;;;;;;10.05;5.07;;;;;;;18.93;58.72;102284.16;4961432;28;20035;-78
2022/06/16 22:09:54;;;;;;;8.60;4.88;;;;;;;18.91;58.89;102296.91;4962218;28;20455;-78
2022/06/16 22:12:22;;;;;;;8.38;4.75;;;;;;;18.88;58.93;102297.19;4971486;28;20108;-79
2022/06/16 22:17:47;;;;;;;9.63;5.43;;;;;;;18.74;59.51;102295.69;4985922;28;20093;-79
2022/06/16 22:20:18;;;;;;;6.22;5.35;;;;;;;18.69;59.73;102285.31;4983325;28;20031;-79
2022/06/16 22:22:44;;;;;;;12.75;5.72;;;;;;;18.68;59.51;102286.31;4983768;28;20030;-81
2022/06/16 22:25:14;;;;;;;6.78;5.20;;;;;;;18.63;60.32;102291.25;4988617;28;20027;-79
2022/06/16 22:27:45;;;;;;;9.32;5.35;;;;;;;18.61;59.86;102286.00;4985059;28;20058;-79
2022/06/16 22:30:12;;;;;;;7.60;4.93;;;;;;;18.59;59.53;102287.13;4981492;28;20034;-78
2022/06/16 22:35:23;;;;;;;6.72;4.95;;;;;;;18.52;60.60;102286.81;4528774;23;20469;-78
2022/06/16 22:37:51;;;;;;;7.72;5.18;;;;;;;18.47;61.24;102279.16;5031959;28;20037;-78
2022/06/16 22:40:26;;;;;;;8.23;5.30;;;;;;;18.43;61.24;102272.31;5038443;28;20077;-79
2022/06/16 22:43:06;;;;;;;8.60;5.40;;;;;;;18.42;61.09;102276.00;5030425;28;20045;-78
2022/06/16 22:45:34;;;;;;;8.50;5.68;;;;;;;18.40;61.78;102277.13;5001371;28;20053;-78
2022/06/16 22:48:01;;;;;;;9.80;5.72;;;;;;;18.33;62.02;102271.41;4998863;28;20041;-79
2022/06/16 22:50:27;;;;;;;7.97;5.07;;;;;;;18.35;61.73;102268.59;5011074;28;20030;-79
2022/06/16 22:52:53;;;;;;;7.70;5.53;;;;;;;18.29;62.05;102260.06;5017066;28;20018;-79
2022/06/16 22:58:06;;;;;;;8.60;6.05;;;;;;;18.24;62.07;102267.69;5012466;28;20555;-79
2022/06/16 23:00:34;;;;;;;5.95;5.22;;;;;;;18.24;62.07;102265.00;5004436;28;20033;-79
2022/06/16 23:03:00;;;;;;;10.82;5.60;;;;;;;18.23;61.79;102270.50;5015912;28;20026;-78
2022/06/16 23:05:29;;;;;;;7.35;5.25;;;;;;;18.15;61.83;102276.53;5006004;28;20023;-78
2022/06/16 23:07:57;;;;;;;8.00;5.88;;;;;;;18.12;62.02;102269.63;5013444;28;20619;-79
2022/06/16 23:10:23;;;;;;;9.07;6.60;;;;;;;18.07;62.38;102277.22;5007878;28;20045;-78
2022/06/16 23:12:50;;;;;;;10.43;5.82;;;;;;;18.01;62.59;102274.22;5010484;28;20028;-78
2022/06/16 23:15:15;;;;;;;7.07;6.25;;;;;;;18.02;62.82;102289.34;5006252;28;20079;-79
2022/06/16 23:17:46;;;;;;;9.93;6.55;;;;;;;17.96;63.13;102282.66;5007596;28;20456;-79
2022/06/16 23:20:13;;;;;;;7.95;6.38;;;;;;;17.90;63.40;102283.19;5012214;28;20057;-79
2022/06/16 23:22:39;;;;;;;7.95;6.63;;;;;;;17.90;63.19;102280.50;5004960;28;20505;-79
2022/06/16 23:25:04;;;;;;;11.25;6.90;;;;;;;17.85;64.18;102280.88;5011107;28;20065;-79
2022/06/16 23:27:30;;;;;;;12.27;6.30;;;;;;;17.78;64.76;102273.44;5016756;28;20481;-79
2022/06/16 23:29:56;;;;;;;8.55;6.70;;;;;;;17.71;64.86;102275.81;5016047;28;20041;-79
2022/06/16 23:32:23;;;;;;;12.05;6.60;;;;;;;17.63;65.55;102284.50;5009929;28;20037;-79
2022/06/16 23:34:51;;;;;;;10.43;6.65;;;;;;;17.65;65.11;102287.94;5010086;28;20059;-79
2022/06/16 23:37:24;;;;;;;13.65;6.60;;;;;;;17.60;64.92;102287.44;5009899;28;20022;-79
2022/06/16 23:39:52;;;;;;;10.45;6.63;;;;;;;17.58;65.58;102275.97;5015676;28;20049;-79
2022/06/16 23:42:23;;;;;;;14.85;7.78;;;;;;;17.57;65.79;102266.22;5015578;28;20048;-79
2022/06/16 23:44:49;;;;;;;7.25;6.57;;;;;;;17.55;65.86;102266.34;5011960;28;20037;-79
2022/06/16 23:47:15;;;;;;;11.30;6.88;;;;;;;17.51;66.15;102274.78;5015587;28;20018;-79
2022/06/16 23:49:41;;;;;;;10.25;6.25;;;;;;;17.54;65.95;102269.16;5016327;28;20056;-79
2022/06/16 23:52:19;;;;;;;11.73;6.90;;;;;;;17.51;65.59;102272.09;4998041;28;20030;-79
2022/06/16 23:54:45;;;;;;;9.45;6.28;;;;;;;17.46;66.31;102269.78;4994614;28;20030;-79
2022/06/16 23:57:11;;;;;;;9.40;6.68;;;;;;;17.37;67.04;102259.84;5008685;28;20029;-79
2022/06/16 23:59:36;;;;;;;10.07;7.20;;;;;;;17.36;67.13;102256.28;5016072;28;20029;-79
